Time;durP1;ratioP1;P1;durP2;ratioP2;P2;SDS_P1;SDS_P2;PMS_P1;PMS_P2;Temp;Humidity;BMP_temperature;BMP_pressure;BME280_temperature;BME280_humidity;BME280_pressure;Samples;Min_cycle;Max_cycle;Signal;HPM_P1;HPM_P2
2023/07/04 00:02:20;;;;;;;17.25;7.97;;;21.50;64.00;;;;;;4852200;29;20081;-96
2023/07/04 00:04:48;;;;;;;17.13;7.68;;;21.50;63.90;;;;;;4835237;29;20053;-96
2023/07/04 00:07:15;;;;;;;17.70;8.10;;;21.50;64.20;;;;;;4850570;29;20512;-96
2023/07/04 00:09:43;;;;;;;18.23;8.10;;;21.50;65.00;;;;;;4838188;29;20053;-96
2023/07/04 00:12:10;;;;;;;20.27;8.27;;;21.50;65.20;;;;;;4850360;29;20053;-96
2023/07/04 00:14:37;;;;;;;19.67;8.63;;;21.40;64.30;;;;;;4834985;29;20067;-96
2023/07/04 00:17:05;;;;;;;17.23;8.32;;;21.50;64.60;;;;;;4850597;29;20053;-96
2023/07/04 00:19:32;;;;;;;16.80;7.90;;;21.40;64.80;;;;;;4849841;29;20057;-96
2023/07/04 00:21:59;;;;;;;18.40;8.00;;;21.40;64.90;;;;;;4850363;29;20557;-96
2023/07/04 00:24:27;;;;;;;16.10;7.78;;;21.30;65.40;;;;;;4836111;29;20045;-96
2023/07/04 00:26:56;;;;;;;18.88;8.30;;;21.30;65.70;;;;;;4851688;29;20503;-96
2023/07/04 00:29:23;;;;;;;16.90;8.15;;;21.20;66.40;;;;;;4853106;29;20121;-96
2023/07/04 00:31:51;;;;;;;15.95;8.27;;;21.20;66.90;;;;;;4838943;29;20049;-96
2023/07/04 00:34:18;;;;;;;16.77;7.90;;;21.20;67.80;;;;;;4852411;29;20061;-96
2023/07/04 00:36:46;;;;;;;14.45;7.75;;;21.10;67.00;;;;;;4837203;29;20060;-96
2023/07/04 00:39:13;;;;;;;18.08;7.88;;;21.10;66.80;;;;;;4835537;29;20105;-96
2023/07/04 00:41:41;;;;;;;16.77;8.13;;;21.10;66.50;;;;;;4836771;29;20117;-96
2023/07/04 00:44:24;;;;;;;16.70;8.18;;;21.10;66.40;;;;;;4850013;29;20050;-96
2023/07/04 00:47:10;;;;;;;14.97;7.40;;;21.10;66.40;;;;;;4848389;29;20076;-96
2023/07/04 00:49:44;;;;;;;17.00;8.10;;;21.10;65.90;;;;;;4848642;29;20046;-96
2023/07/04 00:52:23;;;;;;;19.23;8.38;;;21.20;65.10;;;;;;4848752;29;20053;-96
2023/07/04 00:54:57;;;;;;;16.63;8.05;;;21.20;66.00;;;;;;4833377;29;20054;-96
2023/07/04 00:57:32;;;;;;;16.48;7.80;;;21.20;65.40;;;;;;4833378;29;20089;-96
2023/07/04 01:00:15;;;;;;;16.27;7.70;;;21.20;65.10;;;;;;4848502;29;20058;-96
2023/07/04 01:02:45;;;;;;;19.00;8.35;;;21.20;65.20;;;;;;4848437;29;20049;-96
2023/07/04 01:05:19;;;;;;;20.65;8.30;;;21.10;65.60;;;;;;4848440;29;20045;-96
2023/07/04 01:07:55;;;;;;;20.48;7.95;;;21.10;66.00;;;;;;4848637;29;20077;-96
2023/07/04 01:10:29;;;;;;;18.17;7.55;;;21.10;65.10;;;;;;4848275;29;20049;-96
2023/07/04 01:12:58;;;;;;;18.00;8.47;;;21.10;65.60;;;;;;4848321;29;20054;-96
2023/07/04 01:15:28;;;;;;;17.60;8.30;;;21.10;65.90;;;;;;4847965;29;20136;-96
2023/07/04 01:17:56;;;;;;;21.08;8.40;;;21.10;65.10;;;;;;4847948;29;20053;-96
2023/07/04 01:20:24;;;;;;;20.27;7.82;;;21.00;65.30;;;;;;4847719;29;20084;-96
2023/07/04 01:23:08;;;;;;;18.67;8.50;;;20.80;64.10;;;;;;4847782;29;20504;-95
2023/07/04 01:25:44;;;;;;;19.30;8.70;;;20.60;65.00;;;;;;4847899;29;20068;-96
2023/07/04 01:28:13;;;;;;;18.92;8.30;;;20.60;65.00;;;;;;4848363;29;20568;-96
2023/07/04 01:30:42;;;;;;;18.90;8.73;;;20.60;64.70;;;;;;4833591;29;20050;-96
2023/07/04 01:33:11;;;;;;;20.83;9.10;;;20.60;64.60;;;;;;4848308;29;20057;-96
2023/07/04 01:35:39;;;;;;;19.63;8.40;;;20.70;64.30;;;;;;4849820;29;20061;-96
2023/07/04 01:38:07;;;;;;;17.30;8.23;;;20.80;64.30;;;;;;4849777;29;20140;-96
2023/07/04 01:40:35;;;;;;;20.83;8.77;;;20.70;64.70;;;;;;4847869;29;20049;-96
2023/07/04 01:43:06;;;;;;;17.55;8.30;;;20.80;64.40;;;;;;4847526;29;20055;-96
2023/07/04 01:45:33;;;;;;;18.00;7.82;;;20.80;64.90;;;;;;4847366;29;20412;-96
2023/07/04 01:48:00;;;;;;;18.70;8.00;;;20.70;65.40;;;;;;4832418;29;20049;-96
2023/07/04 01:50:28;;;;;;;19.83;8.00;;;20.60;65.80;;;;;;4847414;29;20058;-96
2023/07/04 01:52:55;;;;;;;16.75;8.18;;;20.60;65.50;;;;;;4847570;29;20049;-96
2023/07/04 01:55:22;;;;;;;19.45;8.27;;;20.60;65.40;;;;;;4847353;29;20049;-96
2023/07/04 01:57:50;;;;;;;17.80;8.05;;;20.50;65.70;;;;;;4846776;29;20049;-96
2023/07/04 02:00:18;;;;;;;19.48;8.13;;;20.50;65.90;;;;;;4847878;29;20136;-96
2023/07/04 02:02:54;;;;;;;16.97;7.97;;;20.50;66.20;;;;;;4862889;29;20475;-96
2023/07/04 02:05:22;;;;;;;21.73;8.27;;;20.40;66.20;;;;;;4847338;29;20049;-96
2023/07/04 02:07:49;;;;;;;20.67;8.85;;;20.40;66.50;;;;;;4848308;29;20065;-96
2023/07/04 02:10:17;;;;;;;18.65;8.85;;;20.30;67.20;;;;;;4847394;29;20493;-96
2023/07/04 02:12:44;;;;;;;17.80;8.23;;;20.40;66.80;;;;;;4848373;29;20064;-96
2023/07/04 02:15:12;;;;;;;19.33;8.23;;;20.30;67.10;;;;;;4850204;29;20057;-96
2023/07/04 02:17:40;;;;;;;19.30;9.13;;;20.30;67.30;;;;;;4852041;29;20083;-96
2023/07/04 02:20:08;;;;;;;19.33;8.30;;;20.30;66.90;;;;;;4839243;29;20073;-96
2023/07/04 02:22:40;;;;;;;21.67;8.40;;;20.20;66.90;;;;;;4844252;29;20053;-96
2023/07/04 02:25:11;;;;;;;20.15;8.75;;;20.20;67.10;;;;;;4863644;29;20053;-96
2023/07/04 02:27:55;;;;;;;22.43;8.47;;;20.10;67.10;;;;;;4864807;29;20045;-96
2023/07/04 02:30:24;;;;;;;19.23;9.45;;;20.10;67.50;;;;;;4860970;29;20084;-96
2023/07/04 02:32:52;;;;;;;20.52;8.52;;;20.10;67.20;;;;;;4850799;29;20082;-96
2023/07/04 02:35:20;;;;;;;20.15;8.93;;;20.10;67.40;;;;;;4851359;29;20057;-96
2023/07/04 02:37:48;;;;;;;18.45;8.20;;;20.10;66.90;;;;;;4833259;29;20054;-96
2023/07/04 02:40:15;;;;;;;17.47;8.07;;;20.10;67.00;;;;;;4846979;29;20045;-96
2023/07/04 02:42:43;;;;;;;18.40;8.27;;;20.10;67.20;;;;;;4853131;29;20045;-96
2023/07/04 02:45:11;;;;;;;16.80;7.70;;;20.10;67.50;;;;;;4835283;29;20075;-96
2023/07/04 02:47:39;;;;;;;17.85;8.05;;;20.00;67.70;;;;;;4847396;29;20409;-96
2023/07/04 02:50:12;;;;;;;18.00;8.00;;;20.00;67.90;;;;;;4849140;29;20057;-95
2023/07/04 02:52:40;;;;;;;16.77;7.67;;;20.00;68.10;;;;;;4831913;29;20054;-93
2023/07/04 02:55:11;;;;;;;18.48;7.97;;;19.90;68.30;;;;;;4846471;29;20042;-93
2023/07/04 02:57:38;;;;;;;18.40;8.00;;;19.90;68.20;;;;;;4831366;29;20054;-94
2023/07/04 03:00:06;;;;;;;17.27;8.40;;;19.90;68.00;;;;;;4846197;29;20069;-93
2023/07/04 03:02:35;;;;;;;20.60;8.70;;;19.90;67.60;;;;;;4846735;29;20048;-93
2023/07/04 03:05:03;;;;;;;20.30;8.77;;;20.00;67.20;;;;;;4841212;29;20515;-94
2023/07/04 03:07:32;;;;;;;20.50;8.50;;;20.00;67.00;;;;;;4828721;29;20048;-94
2023/07/04 03:09:59;;;;;;;18.17;8.93;;;20.00;67.40;;;;;;4829946;29;20109;-94
2023/07/04 03:12:28;;;;;;;20.02;8.93;;;20.00;67.60;;;;;;4816818;29;20054;-93
2023/07/04 03:14:57;;;;;;;17.02;8.82;;;20.00;67.60;;;;;;4832391;29;20072;-93
2023/07/04 03:17:25;;;;;;;20.47;8.97;;;20.00;67.50;;;;;;4831584;29;20046;-93
2023/07/04 03:19:53;;;;;;;20.10;8.60;;;19.90;67.20;;;;;;4816739;29;20497;-93
2023/07/04 03:22:20;;;;;;;18.67;8.50;;;20.00;67.20;;;;;;4831576;29;20078;-93
2023/07/04 03:24:51;;;;;;;17.00;8.07;;;20.00;67.50;;;;;;4830959;29;20117;-96
2023/07/04 03:27:59;;;;;;;17.67;8.13;;;20.00;67.70;;;;;;4833510;29;20034;-96
2023/07/04 03:30:47;;;;;;;21.27;8.00;;;19.90;67.20;;;;;;4835690;29;20034;-96
2023/07/04 03:34:19;;;;;;;17.40;8.00;;;19.80;67.40;;;;;;4838419;29;20061;-96
2023/07/04 03:38:02;;;;;;;26.63;9.05;;;19.80;67.20;;;;;;4778222;29;20050;-96
2023/07/04 03:48:27;;;;;;;21.37;8.20;;;19.80;67.70;;;;;;5616585;23;20208;-96
2023/07/04 03:51:32;;;;;;;20.98;8.20;;;19.80;66.90;;;;;;4986031;23;20053;31
2023/07/04 03:54:04;;;;;;;23.75;8.27;;;19.80;66.40;;;;;;4831048;29;20417;-96
2023/07/04 03:56:33;;;;;;;20.25;8.25;;;19.60;65.90;;;;;;4823771;29;20126;-96
2023/07/04 03:59:53;;;;;;;20.42;8.07;;;19.70;65.70;;;;;;1243978;24;20454;-95
2023/07/04 04:02:23;;;;;;;24.80;8.07;;;19.80;65.80;;;;;;4866343;29;20061;-95
2023/07/04 04:04:52;;;;;;;21.02;7.47;;;19.80;66.60;;;;;;4882898;29;20124;-96
2023/07/04 04:07:22;;;;;;;17.38;7.75;;;19.80;65.60;;;;;;4883564;29;20068;-96
2023/07/04 04:09:50;;;;;;;17.10;7.78;;;19.80;64.40;;;;;;4899032;29;20147;-96
2023/07/04 04:12:19;;;;;;;23.40;7.57;;;19.80;64.90;;;;;;4869889;29;20060;-96
2023/07/04 04:14:47;;;;;;;17.10;7.07;;;19.90;65.00;;;;;;4884992;29;20057;-96
2023/07/04 04:17:17;;;;;;;14.57;7.00;;;19.80;65.90;;;;;;4900481;29;20073;-95
2023/07/04 04:19:49;;;;;;;19.40;7.20;;;19.80;66.80;;;;;;4885333;29;20057;-96
2023/07/04 06:38:39;;;;;;;17.60;3.92;;;24.20;49.20;;;;;;5311358;23;20080;-95
2023/07/04 06:41:14;;;;;;;71.38;8.50;;;24.10;47.40;;;;;;4874843;29;20444;-96
2023/07/04 06:43:44;;;;;;;9.00;3.00;;;24.10;46.50;;;;;;4873011;29;20049;-96
2023/07/04 06:46:14;;;;;;;28.07;5.03;;;24.10;44.40;;;;;;4877038;29;20049;-96
2023/07/04 06:48:43;;;;;;;68.43;8.48;;;24.10;46.30;;;;;;4875165;29;20037;-96
2023/07/04 06:51:19;;;;;;;13.93;4.32;;;24.10;47.40;;;;;;4875021;29;20059;-96
2023/07/04 06:53:49;;;;;;;68.10;8.52;;;24.10;45.50;;;;;;4872945;29;20147;-96
2023/07/04 06:56:21;;;;;;;15.45;3.50;;;24.10;46.10;;;;;;4871810;29;20063;-96
2023/07/04 06:58:52;;;;;;;14.00;3.13;;;23.90;46.80;;;;;;4874717;29;20453;-96
2023/07/04 07:01:28;;;;;;;23.10;4.78;;;23.90;48.20;;;;;;4870951;29;20045;-96
2023/07/04 07:03:57;;;;;;;30.02;5.68;;;24.00;47.30;;;;;;4878971;29;20069;-96
2023/07/04 07:06:27;;;;;;;64.80;7.22;;;24.10;48.30;;;;;;4892727;29;20135;-95
2023/07/04 07:08:57;;;;;;;8.88;2.00;;;24.20;48.00;;;;;;4889771;29;20070;-96
2023/07/04 07:11:25;;;;;;;88.47;10.17;;;24.20;46.20;;;;;;4875351;29;20053;-96
2023/07/04 07:13:54;;;;;;;88.82;10.35;;;24.20;45.90;;;;;;4873787;29;20064;-95
2023/07/04 07:16:24;;;;;;;26.33;3.00;;;24.30;44.70;;;;;;4872033;29;20095;-96
2023/07/04 07:18:53;;;;;;;50.13;5.80;;;24.30;44.90;;;;;;4871928;29;20392;-96
2023/07/04 07:21:25;;;;;;;25.33;3.50;;;24.30;44.40;;;;;;4874007;29;20053;-96
2023/07/04 07:23:53;;;;;;;368.20;33.10;;;24.30;45.00;;;;;;4871137;29;20045;-96
2023/07/04 07:26:26;;;;;;;14.05;2.65;;;24.40;45.00;;;;;;4874352;29;20072;-96
2023/07/04 07:28:55;;;;;;;13.93;2.67;;;24.60;44.50;;;;;;4873389;29;20523;-96
2023/07/04 07:31:25;;;;;;;14.77;2.55;;;24.50;44.60;;;;;;4869482;29;20057;-92
2023/07/04 07:33:59;;;;;;;9.75;2.00;;;24.60;44.00;;;;;;4865430;29;20143;-93
2023/07/04 07:36:30;;;;;;;28.17;3.50;;;24.60;45.60;;;;;;4864875;29;20145;-93
2023/07/04 07:38:58;;;;;;;39.58;5.13;;;24.90;45.50;;;;;;4864510;29;20065;-93
2023/07/04 07:41:30;;;;;;;27.50;4.93;;;25.00;44.90;;;;;;4864419;29;20049;-93
2023/07/04 07:43:57;;;;;;;42.10;5.50;;;25.00;44.40;;;;;;4864472;29;20049;-93
2023/07/04 07:46:24;;;;;;;24.50;4.57;;;24.80;43.90;;;;;;4864701;29;20464;-92
2023/07/04 07:48:51;;;;;;;26.60;4.00;;;24.90;45.50;;;;;;4879962;29;20041;-93
2023/07/04 07:51:19;;;;;;;12.15;2.33;;;24.90;44.90;;;;;;4879961;29;20081;-94
2023/07/04 07:53:49;;;;;;;38.28;4.20;;;25.10;44.30;;;;;;4861893;29;20060;-93
2023/07/04 07:56:19;;;;;;;9.57;2.13;;;25.30;44.60;;;;;;4862804;29;20081;-93
2023/07/04 07:58:47;;;;;;;6.20;1.50;;;25.40;45.50;;;;;;4864836;29;20071;-95
2023/07/04 08:01:14;;;;;;;43.70;3.90;;;25.50;43.00;;;;;;4864566;29;20045;-94
2023/07/04 08:03:42;;;;;;;16.02;1.70;;;25.60;44.80;;;;;;4864617;29;20068;-93
2023/07/04 08:06:23;;;;;;;15.73;2.00;;;25.60;42.20;;;;;;4864627;29;20045;-94
2023/07/04 08:08:51;;;;;;;9.55;1.63;;;25.70;42.70;;;;;;4864715;29;20117;-95
2023/07/04 08:11:20;;;;;;;8.13;1.33;;;25.90;43.30;;;;;;4849015;29;20056;-95
2023/07/04 08:13:47;;;;;;;5.47;1.20;;;26.00;43.50;;;;;;4864348;29;20053;-94
2023/07/04 08:16:39;;;;;;;3.92;1.00;;;25.70;41.50;;;;;;4864710;29;20049;-93
2023/07/04 08:19:06;;;;;;;5.78;1.20;;;25.60;42.10;;;;;;4871471;29;20080;-91
2023/07/04 08:21:33;;;;;;;7.03;1.25;;;25.50;43.20;;;;;;4869620;29;20048;-91
2023/07/04 08:24:01;;;;;;;6.47;1.15;;;25.60;43.30;;;;;;4873401;29;20128;-91
2023/07/04 08:26:28;;;;;;;7.43;1.23;;;25.60;43.80;;;;;;4874579;29;20041;-91
2023/07/04 08:28:56;;;;;;;6.03;0.90;;;25.70;43.80;;;;;;4858715;29;20076;-91
2023/07/04 08:31:24;;;;;;;5.97;1.10;;;25.80;42.50;;;;;;4852394;29;20121;-90
2023/07/04 08:33:51;;;;;;;5.93;1.20;;;25.80;42.40;;;;;;4874931;29;20050;-90
2023/07/04 08:36:19;;;;;;;6.10;1.23;;;25.60;41.60;;;;;;4876167;29;20144;-91
2023/07/04 08:38:48;;;;;;;12.57;1.20;;;25.50;42.90;;;;;;4886623;29;20060;-91
2023/07/04 08:41:24;;;;;;;4.13;1.30;;;25.50;45.50;;;;;;4882645;29;20049;-91
2023/07/04 08:44:00;;;;;;;4.30;1.02;;;25.60;43.40;;;;;;4880633;29;20520;-91
2023/07/04 08:46:34;;;;;;;5.32;1.23;;;25.50;42.90;;;;;;4872965;29;20084;-91
2023/07/04 08:49:03;;;;;;;5.07;1.48;;;25.50;43.50;;;;;;4858535;29;20045;-91
2023/07/04 08:51:43;;;;;;;3.80;1.27;;;25.60;42.20;;;;;;4874995;29;20044;-91
2023/07/04 08:54:12;;;;;;;4.30;1.25;;;25.60;44.10;;;;;;4863444;29;20056;-91
2023/07/04 08:56:39;;;;;;;5.18;1.00;;;25.80;43.40;;;;;;4873319;29;20445;-91
2023/07/04 08:59:37;;;;;;;4.63;1.20;;;25.80;42.00;;;;;;4876911;29;20144;-90
2023/07/04 09:02:04;;;;;;;7.10;1.10;;;25.90;43.50;;;;;;4857413;29;20053;-91
2023/07/04 09:04:36;;;;;;;6.00;1.20;;;26.00;43.60;;;;;;4879455;29;20055;-91
2023/07/04 09:07:21;;;;;;;4.82;1.23;;;26.10;42.90;;;;;;4872157;29;20064;-91
2023/07/04 09:10:09;;;;;;;5.35;1.10;;;26.10;42.60;;;;;;4880886;29;20048;-91
2023/07/04 09:12:37;;;;;;;5.57;0.93;;;26.30;41.50;;;;;;4891333;29;20081;-91
2023/07/04 09:15:14;;;;;;;4.50;1.20;;;26.50;45.70;;;;;;4867521;29;20045;-91
2023/07/04 09:18:10;;;;;;;5.50;1.30;;;26.60;42.20;;;;;;4897222;29;20049;-90
2023/07/04 09:21:12;;;;;;;5.78;1.30;;;26.60;41.40;;;;;;4864102;29;20141;-91
2023/07/04 09:23:41;;;;;;;7.18;1.33;;;26.60;43.00;;;;;;4881009;29;20105;-90
2023/07/04 09:26:11;;;;;;;5.07;1.40;;;26.70;44.00;;;;;;4854389;29;20048;-90
2023/07/04 09:28:43;;;;;;;4.45;1.30;;;26.80;41.50;;;;;;4864096;29;20052;-90
2023/07/04 09:31:22;;;;;;;5.17;1.30;;;26.80;42.80;;;;;;4871089;29;20434;-91
2023/07/04 09:33:53;;;;;;;5.15;1.20;;;26.80;42.10;;;;;;4873364;29;20104;-91
2023/07/04 09:36:29;;;;;;;5.60;1.27;;;26.80;42.70;;;;;;4876633;29;20554;-90
2023/07/04 09:38:59;;;;;;;6.95;1.35;;;26.80;40.90;;;;;;4874537;29;20541;-91
2023/07/04 09:41:31;;;;;;;7.53;1.38;;;27.00;41.80;;;;;;4877129;29;20067;-91
2023/07/04 09:44:12;;;;;;;3.67;0.90;;;27.00;42.30;;;;;;4888453;29;20048;-91
2023/07/04 09:46:45;;;;;;;5.50;1.20;;;27.00;40.70;;;;;;4854887;29;20127;-91
2023/07/04 09:49:26;;;;;;;4.53;1.20;;;27.00;41.20;;;;;;4879434;29;20041;-91
2023/07/04 09:52:05;;;;;;;8.00;1.27;;;26.90;40.10;;;;;;4867049;29;20460;-91
2023/07/04 09:54:35;;;;;;;5.53;1.10;;;27.00;43.40;;;;;;4859080;29;20091;-90
2023/07/04 09:57:24;;;;;;;6.23;1.03;;;27.10;41.40;;;;;;4876818;29;20044;-91
2023/07/04 09:59:53;;;;;;;4.20;1.10;;;27.20;41.80;;;;;;4888605;29;20060;-91
2023/07/04 10:02:24;;;;;;;4.95;1.20;;;27.30;42.00;;;;;;4873745;29;20049;-91
2023/07/04 10:04:53;;;;;;;4.25;1.35;;;27.50;42.90;;;;;;4878032;29;20055;-91
2023/07/04 10:07:24;;;;;;;5.53;1.30;;;27.50;41.40;;;;;;4887830;29;20036;-91
2023/07/04 10:09:55;;;;;;;4.83;1.03;;;27.60;39.60;;;;;;4888832;29;20047;-91
2023/07/04 10:12:23;;;;;;;7.75;1.25;;;27.60;40.20;;;;;;4863823;29;20080;-91
2023/07/04 10:14:57;;;;;;;5.45;1.20;;;27.50;40.20;;;;;;4871428;29;20119;-91
2023/07/04 10:17:27;;;;;;;20.75;2.33;;;27.40;39.50;;;;;;4881012;29;20052;-91
2023/07/04 10:20:00;;;;;;;22.38;2.55;;;27.40;41.10;;;;;;4863728;29;20062;-91
2023/07/04 10:22:34;;;;;;;16.83;2.13;;;27.30;40.00;;;;;;4877987;29;20498;-91
2023/07/04 10:25:02;;;;;;;11.25;1.27;;;27.40;40.60;;;;;;4879020;29;20049;-91
2023/07/04 10:27:34;;;;;;;6.80;1.08;;;27.40;40.40;;;;;;4849783;29;20041;-92
2023/07/04 10:30:06;;;;;;;9.27;1.30;;;27.50;41.40;;;;;;4860490;29;20510;-91
2023/07/04 10:32:46;;;;;;;7.07;1.20;;;27.60;41.00;;;;;;4899150;29;20104;-91
2023/07/04 10:35:21;;;;;;;27.77;3.37;;;27.60;40.10;;;;;;4894550;29;20063;-91
2023/07/04 10:38:03;;;;;;;9.43;1.73;;;27.80;40.00;;;;;;4888071;29;20151;-91
2023/07/04 10:40:33;;;;;;;7.28;1.40;;;27.80;38.80;;;;;;4878506;29;20056;-91
2023/07/04 10:43:13;;;;;;;3.63;1.20;;;27.80;40.50;;;;;;4884056;29;20087;-91
2023/07/04 10:45:45;;;;;;;6.18;1.30;;;27.80;39.30;;;;;;4874284;29;20041;-91
2023/07/04 10:48:30;;;;;;;5.47;1.27;;;27.90;39.70;;;;;;4887328;29;20049;-92
2023/07/04 10:51:07;;;;;;;6.95;1.33;;;28.00;41.40;;;;;;4867851;29;20044;-92
2023/07/04 10:53:34;;;;;;;58.83;6.38;;;27.60;39.00;;;;;;4880415;29;20139;-91
2023/07/04 10:56:13;;;;;;;27.83;2.85;;;27.60;40.50;;;;;;4887956;29;20298;-91
2023/07/04 10:58:44;;;;;;;10.27;1.75;;;27.60;40.00;;;;;;4898908;29;20113;-91
2023/07/04 11:01:22;;;;;;;6.27;1.27;;;27.40;40.70;;;;;;4899186;29;20498;-91
2023/07/04 11:03:56;;;;;;;8.68;1.60;;;27.60;40.10;;;;;;4857427;29;20049;-91
2023/07/04 11:06:38;;;;;;;7.00;1.63;;;27.80;39.50;;;;;;4884175;29;20143;-92
2023/07/04 11:09:09;;;;;;;5.22;1.48;;;27.90;39.90;;;;;;4883157;29;20051;-92
2023/07/04 11:11:40;;;;;;;5.15;1.67;;;27.60;40.10;;;;;;4895882;29;20464;-92
2023/07/04 11:14:07;;;;;;;8.03;1.80;;;27.50;41.30;;;;;;4864573;29;20084;-91
2023/07/04 11:16:40;;;;;;;7.82;1.95;;;27.70;40.60;;;;;;4852509;29;20060;-92
2023/07/04 11:19:22;;;;;;;8.45;1.70;;;27.80;39.40;;;;;;4882852;29;20151;-92
2023/07/04 11:22:00;;;;;;;8.27;1.90;;;27.70;39.40;;;;;;4865266;29;20045;-92
2023/07/04 11:24:35;;;;;;;6.13;1.95;;;27.90;39.30;;;;;;4867221;29;20073;-91
2023/07/04 11:27:17;;;;;;;6.27;1.70;;;28.20;43.40;;;;;;4879128;29;20048;-92
2023/07/04 11:29:54;;;;;;;6.10;1.80;;;28.50;41.80;;;;;;4898184;29;20076;-91
2023/07/04 11:32:32;;;;;;;5.88;1.73;;;28.60;40.00;;;;;;4887872;29;20061;-92
2023/07/04 11:35:13;;;;;;;7.40;1.77;;;28.70;39.60;;;;;;4885146;29;20100;-91
2023/07/04 11:37:43;;;;;;;7.90;1.70;;;28.80;40.10;;;;;;4855252;29;20574;-92
2023/07/04 11:40:29;;;;;;;5.33;1.63;;;28.70;38.20;;;;;;4867926;29;20147;-91
2023/07/04 11:43:04;;;;;;;7.55;1.83;;;28.60;40.00;;;;;;4875606;29;20059;-92
2023/07/04 11:45:32;;;;;;;7.05;2.10;;;28.60;38.40;;;;;;4902056;29;20060;-92
2023/07/04 11:48:10;;;;;;;6.20;1.42;;;28.80;38.10;;;;;;4886515;29;20448;-91
2023/07/04 11:50:43;;;;;;;7.13;1.80;;;28.80;36.70;;;;;;4902360;29;20045;-92
2023/07/04 11:53:24;;;;;;;7.87;1.50;;;28.80;38.50;;;;;;4871799;29;20566;-91
2023/07/04 11:56:19;;;;;;;5.80;1.92;;;28.60;39.00;;;;;;4901706;29;20048;-91
2023/07/04 11:58:46;;;;;;;6.47;1.70;;;28.60;38.80;;;;;;4889659;29;20392;-92
2023/07/04 12:01:16;;;;;;;8.02;1.83;;;28.80;38.10;;;;;;4871421;29;20049;-92
2023/07/04 12:03:54;;;;;;;6.07;1.60;;;29.00;39.70;;;;;;4900601;29;20105;-92
2023/07/04 12:06:48;;;;;;;7.30;1.60;;;29.20;37.60;;;;;;4867443;29;20415;-91
2023/07/04 12:09:24;;;;;;;8.45;1.90;;;29.00;36.90;;;;;;4864690;29;20049;-91
2023/07/04 12:11:54;;;;;;;6.97;1.90;;;28.70;38.80;;;;;;4867758;29;20053;-91
2023/07/04 12:14:22;;;;;;;7.88;1.70;;;28.80;39.40;;;;;;4867343;29;20499;-92
2023/07/04 12:16:50;;;;;;;7.05;1.75;;;29.10;38.90;;;;;;4867325;29;20516;-91
2023/07/04 12:19:19;;;;;;;6.13;1.40;;;29.10;38.40;;;;;;4881482;29;20137;-91
2023/07/04 12:21:48;;;;;;;5.95;1.38;;;29.20;37.80;;;;;;4874940;29;20049;-91
2023/07/04 12:24:20;;;;;;;6.60;1.85;;;29.20;37.50;;;;;;4877144;29;20522;-91
2023/07/04 12:26:58;;;;;;;6.88;1.60;;;29.40;38.70;;;;;;4873506;29;20075;-91
2023/07/04 12:29:26;;;;;;;7.82;1.75;;;29.60;38.30;;;;;;4884520;29;20154;-91
2023/07/04 12:32:18;;;;;;;17.90;2.60;;;29.60;38.90;;;;;;4874455;29;20448;-91
2023/07/04 12:34:45;;;;;;;10.93;1.63;;;29.40;37.20;;;;;;4885698;29;20048;-91
2023/07/04 12:37:19;;;;;;;6.40;2.10;;;29.20;38.00;;;;;;4891218;29;20048;-92
2023/07/04 12:39:48;;;;;;;5.35;1.60;;;29.40;38.70;;;;;;4878884;29;20049;-91
2023/07/04 12:42:28;;;;;;;8.25;2.10;;;29.40;38.70;;;;;;4898193;29;20511;-96
2023/07/04 12:44:55;;;;;;;6.00;1.60;;;29.50;37.20;;;;;;4890276;29;20499;-95
2023/07/04 12:47:32;;;;;;;5.63;1.77;;;29.50;38.50;;;;;;4883180;29;20072;-95
2023/07/04 12:50:08;;;;;;;5.72;1.55;;;29.60;37.90;;;;;;4888479;29;20055;-96
2023/07/04 12:52:38;;;;;;;6.47;2.00;;;29.90;38.30;;;;;;4869433;29;20077;-95
2023/07/04 12:55:33;;;;;;;5.32;1.80;;;29.70;37.70;;;;;;4898362;29;20052;-96
2023/07/04 12:58:08;;;;;;;6.47;1.50;;;29.70;37.40;;;;;;4899242;29;20060;-95
2023/07/04 13:04:34;;;;;;;7.70;1.60;;;29.80;35.90;;;;;;4996833;23;20089;-96
2023/07/04 13:15:44;;;;;;;5.70;2.63;;;30.00;36.70;;;;;;6000804;23;20952;-96
2023/07/04 13:18:13;;;;;;;8.27;2.85;;;29.80;37.10;;;;;;4840862;29;20045;-95
2023/07/04 13:20:56;;;;;;;6.40;2.45;;;29.90;39.10;;;;;;4839574;29;20050;-96
2023/07/04 13:23:25;;;;;;;4.97;2.58;;;29.90;36.50;;;;;;4844213;29;20058;-96
2023/07/04 13:26:16;;;;;;;6.43;2.72;;;29.80;36.90;;;;;;4826767;29;20571;-95
2023/07/04 13:28:54;;;;;;;8.70;2.80;;;29.50;37.50;;;;;;4838586;29;20054;-95
2023/07/04 13:31:42;;;;;;;20.55;2.75;;;29.40;38.20;;;;;;4918666;23;20076;-95
2023/07/04 13:34:44;;;;;;;8.55;2.70;;;29.40;37.20;;;;;;4915275;29;20055;-96
2023/07/04 13:37:27;;;;;;;6.30;3.17;;;29.20;38.80;;;;;;4911506;29;20056;-95
2023/07/04 13:40:15;;;;;;;6.47;2.47;;;29.10;38.30;;;;;;4906235;29;20032;-96
2023/07/04 13:43:11;;;;;;;6.87;2.57;;;29.20;38.00;;;;;;4921157;29;20044;-96
2023/07/04 13:45:45;;;;;;;6.95;3.28;;;29.20;38.40;;;;;;4903548;29;20051;-95
2023/07/04 13:48:13;;;;;;;7.95;2.72;;;28.90;37.40;;;;;;4912245;29;20044;-94
2023/07/04 13:51:13;;;;;;;6.05;2.60;;;28.60;37.90;;;;;;5086860;23;20036;-96
2023/07/04 13:54:00;;;;;;;6.35;2.67;;;28.20;38.00;;;;;;4898469;29;20067;-96
2023/07/04 14:12:46;;;;;;;6.90;2.78;;;28.00;39.20;;;;;;4902239;29;20036;-96
2023/07/04 14:20:06;;;;;;;5.28;2.25;;;28.20;38.90;;;;;;4920440;29;20048;-96
2023/07/04 14:27:37;;;;;;;5.90;2.22;;;28.40;41.10;;;;;;4937462;29;20043;-96
2023/07/04 14:30:22;;;;;;;6.93;2.80;;;28.80;39.30;;;;;;4911254;29;20044;-94
2023/07/04 14:32:49;;;;;;;6.83;2.70;;;28.70;38.20;;;;;;4888300;29;20071;-95
2023/07/04 14:35:17;;;;;;;8.15;2.80;;;28.60;38.50;;;;;;4886996;29;20107;-93
2023/07/04 14:37:44;;;;;;;5.85;2.50;;;28.90;39.00;;;;;;4902304;29;20052;-93
2023/07/04 14:40:11;;;;;;;6.60;3.10;;;29.20;39.40;;;;;;4902204;29;20601;-93
2023/07/04 14:42:58;;;;;;;7.05;2.85;;;29.30;38.10;;;;;;4901701;29;20052;-92
2023/07/04 14:45:25;;;;;;;7.63;2.97;;;29.40;39.20;;;;;;4902150;29;20048;-91
2023/07/04 14:47:53;;;;;;;5.47;2.70;;;29.50;37.70;;;;;;4886975;29;20048;-92
2023/07/04 14:50:22;;;;;;;9.80;2.97;;;29.60;38.70;;;;;;4901877;29;20048;-92
2023/07/04 14:52:50;;;;;;;8.30;2.92;;;29.50;37.80;;;;;;4902082;29;20063;-92
2023/07/04 14:55:18;;;;;;;42.28;8.00;;;29.40;38.10;;;;;;4887832;29;20047;-92
2023/07/04 14:57:46;;;;;;;113.50;14.83;;;29.30;38.20;;;;;;4901748;29;20553;-92
2023/07/04 15:00:17;;;;;;;24.63;4.50;;;29.50;39.30;;;;;;4886575;29;20048;-93
2023/07/04 15:02:46;;;;;;;12.65;3.50;;;29.50;37.30;;;;;;4886067;29;20059;-92
2023/07/04 15:05:13;;;;;;;8.77;3.03;;;29.60;37.40;;;;;;4889882;29;20072;-92
2023/07/04 15:07:42;;;;;;;10.77;3.55;;;29.50;37.70;;;;;;4908198;29;20578;-92
2023/07/04 15:10:09;;;;;;;7.60;2.80;;;29.60;39.20;;;;;;4907668;29;20032;-92
2023/07/04 15:12:36;;;;;;;6.47;2.63;;;29.70;38.10;;;;;;4908256;29;20048;-92
2023/07/04 15:15:04;;;;;;;7.45;2.70;;;29.70;36.60;;;;;;4892567;29;20056;-92
2023/07/04 15:17:31;;;;;;;8.15;3.45;;;29.90;37.00;;;;;;4893744;29;20079;-91
2023/07/04 15:19:59;;;;;;;6.10;2.78;;;30.00;37.20;;;;;;4908019;29;20060;-94
2023/07/04 15:22:26;;;;;;;6.87;2.90;;;29.90;37.30;;;;;;4908076;29;20040;-93
2023/07/04 15:24:54;;;;;;;9.13;2.97;;;29.80;36.60;;;;;;4908230;29;20108;-94
2023/07/04 15:27:21;;;;;;;10.18;3.30;;;29.60;37.00;;;;;;4892511;29;20048;-93
2023/07/04 15:29:48;;;;;;;86.38;11.90;;;29.60;38.60;;;;;;4908139;29;20047;-92
2023/07/04 15:32:15;;;;;;;10.70;2.70;;;29.60;39.30;;;;;;4908120;29;20054;-93
2023/07/04 15:34:42;;;;;;;8.97;2.83;;;29.70;38.80;;;;;;4892397;29;20099;-93
2023/07/04 15:37:12;;;;;;;8.63;3.25;;;29.60;38.30;;;;;;4908121;29;20048;-92
2023/07/04 15:39:40;;;;;;;9.73;3.15;;;29.70;38.10;;;;;;4892557;29;20056;-93
2023/07/04 15:42:10;;;;;;;7.68;2.83;;;29.70;38.40;;;;;;4892236;29;20063;-93
2023/07/04 15:44:37;;;;;;;8.43;3.28;;;29.70;37.70;;;;;;4892385;29;20048;-93
2023/07/04 15:47:04;;;;;;;9.33;3.03;;;29.60;38.00;;;;;;4907718;29;20056;-93
2023/07/04 15:49:31;;;;;;;8.68;3.30;;;29.50;37.80;;;;;;4907908;29;20054;-93
2023/07/04 15:51:59;;;;;;;8.52;3.20;;;29.30;38.90;;;;;;4908223;29;20406;-93
2023/07/04 15:54:26;;;;;;;6.80;2.75;;;29.30;38.70;;;;;;4892256;29;20494;-93
2023/07/04 15:56:54;;;;;;;7.68;3.28;;;29.20;38.70;;;;;;4908111;29;20502;-91
2023/07/04 15:59:21;;;;;;;7.00;2.97;;;29.20;40.00;;;;;;4908098;29;20131;-93
2023/07/04 16:01:48;;;;;;;7.75;3.30;;;29.30;40.80;;;;;;4892188;29;20060;-93
2023/07/04 16:04:15;;;;;;;7.25;2.83;;;29.60;38.40;;;;;;4907595;29;20134;-94
2023/07/04 16:06:42;;;;;;;7.50;2.60;;;29.60;38.20;;;;;;4908448;29;20443;-92
2023/07/04 16:09:09;;;;;;;9.20;3.03;;;29.70;38.50;;;;;;4907678;29;20044;-93
2023/07/04 16:11:36;;;;;;;9.23;3.90;;;29.90;39.60;;;;;;4892137;29;20140;-93
2023/07/04 16:14:04;;;;;;;5.97;2.72;;;29.80;37.00;;;;;;4907846;29;20062;-93